Flight Briefing for CPX106

Departure Arrival
Seattle-Tacoma International Airport (KSEA)
Click to view FAA NOTAMS
Ted Stevens Anchorage International Airport (PANC)
Click to view FAA NOTAMS
Departure Time Arrival Time
N/A N/A
Aircraft Distance
B747-400BCF 1257nm
Departure METAR Arrival METAR
KSEA 271153Z 13004KT 10SM FEW100 SCT200 13/11 A2994 RMK AO2 SLP144 T01330111 10189 20133 53006 PANC 271153Z 14012G21KT 10SM CLR 12/05 A2981 RMK AO2 SLP095 70074 T01170050 10117 20106 51021
Suggested Route
BANGR9 ARRIE FOCHE PRYCE BKA LAIRE JOH WITTI4


View recent IFR Routes data
Notes



Charts and Procedures

Charts for KSEA
No chart available
Charts for PANC
No chart available

Windy.com Weather Map